createdAt,value
2019-03-23T00:05:26.000Z,21.4
2019-03-23T00:15:26.000Z,21.4
2019-03-23T00:25:26.000Z,21.3
2019-03-23T00:35:26.000Z,21.3
2019-03-23T00:45:26.000Z,21.4
2019-03-23T00:55:26.000Z,21.4
2019-03-23T01:05:26.000Z,21.4
2019-03-23T01:15:26.000Z,21.4
2019-03-23T01:25:26.000Z,21.4
2019-03-23T01:35:26.000Z,20.9
2019-03-23T01:45:26.000Z,20.3
2019-03-23T01:55:26.000Z,19.9
2019-03-23T02:05:26.000Z,19.7
2019-03-23T02:15:26.000Z,19.4
2019-03-23T02:25:26.000Z,19.2
2019-03-23T02:35:26.000Z,19
2019-03-23T02:45:26.000Z,18.8
2019-03-23T02:55:26.000Z,18.7
2019-03-23T03:05:26.000Z,18.5
2019-03-23T03:15:26.000Z,18.5
2019-03-23T03:25:26.000Z,18.4
2019-03-23T03:35:26.000Z,18.3
2019-03-23T03:45:26.000Z,18.2
2019-03-23T03:55:26.000Z,18.1
2019-03-23T04:05:26.000Z,18
2019-03-23T04:15:26.000Z,18
2019-03-23T04:25:26.000Z,18
2019-03-23T04:35:26.000Z,17.9
2019-03-23T04:45:27.000Z,17.8
2019-03-23T04:55:26.000Z,17.7
2019-03-23T05:05:26.000Z,17.7
2019-03-23T05:15:26.000Z,17.6
2019-03-23T05:25:26.000Z,17.6
2019-03-23T05:35:27.000Z,17.6
2019-03-23T05:45:29.000Z,17.5
2019-03-23T05:55:27.000Z,17.6
2019-03-23T06:05:27.000Z,17.6
2019-03-23T06:15:27.000Z,17.5
2019-03-23T06:25:27.000Z,17.5
2019-03-23T06:35:27.000Z,17.5
2019-03-23T06:45:27.000Z,17.5
2019-03-23T06:55:27.000Z,17.5
2019-03-23T07:05:27.000Z,17.6
2019-03-23T07:15:27.000Z,17.6
2019-03-23T07:25:27.000Z,17.6
2019-03-23T07:35:27.000Z,17.6
2019-03-23T07:45:27.000Z,17.6
2019-03-23T07:55:27.000Z,18.2
2019-03-23T08:05:27.000Z,19
2019-03-23T08:15:28.000Z,19.3
2019-03-23T08:25:27.000Z,19.6
2019-03-23T08:35:27.000Z,19.8
2019-03-23T08:45:27.000Z,19.8
2019-03-23T08:55:27.000Z,19.9
2019-03-23T09:05:27.000Z,20
2019-03-23T09:15:27.000Z,20.2
2019-03-23T09:25:27.000Z,20.2
2019-03-23T09:35:27.000Z,20.3
2019-03-23T09:45:27.000Z,20.4
2019-03-23T09:55:27.000Z,20.4
2019-03-23T10:05:27.000Z,20.4
2019-03-23T10:15:29.000Z,20.4
2019-03-23T10:25:27.000Z,20.4
2019-03-23T10:35:27.000Z,20.4
2019-03-23T10:45:29.000Z,20.5
2019-03-23T10:55:27.000Z,20.5
2019-03-23T11:05:27.000Z,20.5
2019-03-23T11:15:27.000Z,20.6
2019-03-23T11:25:27.000Z,20.6
2019-03-23T11:35:27.000Z,20.7
2019-03-23T11:45:27.000Z,20.7
2019-03-23T11:55:27.000Z,20.7
2019-03-23T12:05:27.000Z,20.7
2019-03-23T12:15:27.000Z,20.7
2019-03-23T12:25:28.000Z,20.8
2019-03-23T12:35:28.000Z,20.8
2019-03-23T12:45:29.000Z,20.7
2019-03-23T12:55:28.000Z,20.8
2019-03-23T13:05:28.000Z,20.7
2019-03-23T13:15:28.000Z,20.7
2019-03-23T13:25:28.000Z,20.7
2019-03-23T13:35:29.000Z,20.7
2019-03-23T13:45:28.000Z,20.7
2019-03-23T14:05:28.000Z,20.8
2019-03-23T14:15:28.000Z,20.9
2019-03-23T14:25:28.000Z,20.8
2019-03-23T14:35:29.000Z,20.8
2019-03-23T14:45:28.000Z,20.8
2019-03-23T14:55:28.000Z,20.8
2019-03-23T15:05:28.000Z,20.8
2019-03-23T15:15:28.000Z,20.8
2019-03-23T15:25:28.000Z,20.9
2019-03-23T15:35:28.000Z,20.9
2019-03-23T15:45:28.000Z,20.9
2019-03-23T15:55:28.000Z,20.9
2019-03-23T16:05:28.000Z,20.9
2019-03-23T16:15:28.000Z,20.9
2019-03-23T16:25:28.000Z,21
2019-03-23T16:35:28.000Z,21
2019-03-23T16:45:28.000Z,21
2019-03-23T16:55:28.000Z,21
2019-03-23T17:05:29.000Z,21
2019-03-23T17:15:28.000Z,21.1
2019-03-23T17:25:28.000Z,21
2019-03-23T17:35:28.000Z,21
2019-03-23T17:45:28.000Z,21.1
2019-03-23T17:55:28.000Z,21
2019-03-23T18:05:31.000Z,21
2019-03-23T18:15:28.000Z,21
2019-03-23T18:25:28.000Z,21
2019-03-23T18:35:29.000Z,21
2019-03-23T18:45:29.000Z,21.1
2019-03-23T18:55:28.000Z,21.1
2019-03-23T19:05:29.000Z,21
2019-03-23T19:15:29.000Z,21.1
2019-03-23T19:35:29.000Z,21.1
2019-03-23T19:45:29.000Z,21.1
2019-03-23T19:55:30.000Z,21.2
2019-03-23T20:05:29.000Z,21.2
2019-03-23T20:15:29.000Z,21.2
2019-03-23T20:25:29.000Z,21.2
2019-03-23T20:35:29.000Z,21.2
2019-03-23T20:45:33.000Z,21.2
2019-03-23T20:55:29.000Z,21.2
2019-03-23T21:05:29.000Z,21.2
2019-03-23T21:15:29.000Z,21.2
2019-03-23T21:25:29.000Z,20.7
2019-03-23T21:35:29.000Z,19.9
2019-03-23T21:45:29.000Z,19.3
2019-03-23T21:55:29.000Z,19
2019-03-23T22:05:29.000Z,18.8
2019-03-23T22:15:29.000Z,18.6
2019-03-23T22:25:29.000Z,18.5
2019-03-23T22:35:29.000Z,18.5
2019-03-23T22:45:31.000Z,18.3
2019-03-23T22:55:29.000Z,18.3
2019-03-23T23:05:29.000Z,18.2
2019-03-23T23:15:29.000Z,18.1
2019-03-23T23:25:29.000Z,18.1
2019-03-23T23:35:29.000Z,18.1
2019-03-23T23:45:29.000Z,18
2019-03-23T23:55:29.000Z,18
